sensor_id;sensor_type;location;lat;lon;timestamp;pressure;altitude;pressure_sealevel;temperature;humidity
4705;BME280;2366;51.332;6.610;2024-03-29T00:01:31;99191.34;;;13.46;47.77
4705;BME280;2366;51.332;6.610;2024-03-29T00:03:56;99177.84;;;13.58;47.69
4705;BME280;2366;51.332;6.610;2024-03-29T00:06:21;99184.38;;;13.35;47.71
4705;BME280;2366;51.332;6.610;2024-03-29T00:08:47;99169.84;;;13.58;47.40
4705;BME280;2366;51.332;6.610;2024-03-29T00:11:12;99159.84;;;13.60;47.00
4705;BME280;2366;51.332;6.610;2024-03-29T00:13:37;99160.38;;;13.45;47.25
4705;BME280;2366;51.332;6.610;2024-03-29T00:16:03;99157.00;;;13.71;47.01
4705;BME280;2366;51.332;6.610;2024-03-29T00:18:28;99152.66;;;13.70;46.82
4705;BME280;2366;51.332;6.610;2024-03-29T00:20:54;99153.06;;;13.75;46.71
4705;BME280;2366;51.332;6.610;2024-03-29T00:23:19;99142.91;;;13.61;46.75
4705;BME280;2366;51.332;6.610;2024-03-29T00:25:44;99133.09;;;13.79;46.36
4705;BME280;2366;51.332;6.610;2024-03-29T00:28:10;99130.19;;;13.54;46.72
4705;BME280;2366;51.332;6.610;2024-03-29T00:30:35;99129.28;;;13.64;46.74
4705;BME280;2366;51.332;6.610;2024-03-29T00:33:02;99142.53;;;13.55;46.86
4705;BME280;2366;51.332;6.610;2024-03-29T00:35:27;99153.56;;;13.61;46.70
4705;BME280;2366;51.332;6.610;2024-03-29T00:37:53;99151.81;;;13.51;46.68
4705;BME280;2366;51.332;6.610;2024-03-29T00:40:18;99159.38;;;13.46;47.06
4705;BME280;2366;51.332;6.610;2024-03-29T00:42:43;99161.97;;;13.38;47.66
4705;BME280;2366;51.332;6.610;2024-03-29T00:45:09;99157.50;;;13.39;47.22
4705;BME280;2366;51.332;6.610;2024-03-29T00:47:34;99170.44;;;13.24;47.96
4705;BME280;2366;51.332;6.610;2024-03-29T00:50:03;99170.13;;;13.27;47.80
4705;BME280;2366;51.332;6.610;2024-03-29T00:52:35;99176.53;;;13.06;48.39
4705;BME280;2366;51.332;6.610;2024-03-29T00:55:00;99162.88;;;13.19;48.19
4705;BME280;2366;51.332;6.610;2024-03-29T00:57:25;99154.22;;;13.17;48.01
4705;BME280;2366;51.332;6.610;2024-03-29T00:59:51;99170.63;;;13.12;48.38
4705;BME280;2366;51.332;6.610;2024-03-29T01:02:16;99163.78;;;13.10;48.53
4705;BME280;2366;51.332;6.610;2024-03-29T01:04:41;99150.78;;;13.25;48.02
4705;BME280;2366;51.332;6.610;2024-03-29T01:07:07;99156.41;;;12.94;48.79
4705;BME280;2366;51.332;6.610;2024-03-29T01:09:32;99151.63;;;13.35;48.06
4705;BME280;2366;51.332;6.610;2024-03-29T01:11:58;99151.41;;;13.46;47.81
4705;BME280;2366;51.332;6.610;2024-03-29T01:14:23;99167.00;;;13.59;47.49
4705;BME280;2366;51.332;6.610;2024-03-29T01:16:49;99153.56;;;13.61;47.30
4705;BME280;2366;51.332;6.610;2024-03-29T01:19:14;99163.34;;;13.42;47.86
4705;BME280;2366;51.332;6.610;2024-03-29T01:21:39;99166.19;;;13.59;47.33
4705;BME280;2366;51.332;6.610;2024-03-29T01:24:05;99174.19;;;13.76;47.06
4705;BME280;2366;51.332;6.610;2024-03-29T01:26:31;99180.75;;;13.82;47.02
4705;BME280;2366;51.332;6.610;2024-03-29T01:28:56;99174.63;;;13.72;46.91
4705;BME280;2366;51.332;6.610;2024-03-29T01:31:22;99163.75;;;13.65;46.89
4705;BME280;2366;51.332;6.610;2024-03-29T01:33:48;99161.16;;;13.28;47.52
4705;BME280;2366;51.332;6.610;2024-03-29T01:36:14;99171.50;;;13.59;46.91
4705;BME280;2366;51.332;6.610;2024-03-29T01:38:40;99166.66;;;13.90;46.44
4705;BME280;2366;51.332;6.610;2024-03-29T01:41:05;99162.91;;;14.01;45.97
4705;BME280;2366;51.332;6.610;2024-03-29T01:43:32;99156.53;;;13.93;45.96
4705;BME280;2366;51.332;6.610;2024-03-29T01:45:57;99156.00;;;14.08;45.92
4705;BME280;2366;51.332;6.610;2024-03-29T01:48:23;99165.66;;;14.09;45.68
4705;BME280;2366;51.332;6.610;2024-03-29T01:50:49;99153.00;;;14.11;45.82
4705;BME280;2366;51.332;6.610;2024-03-29T01:53:16;99141.38;;;14.12;45.54
4705;BME280;2366;51.332;6.610;2024-03-29T01:55:43;99136.59;;;13.97;45.84
4705;BME280;2366;51.332;6.610;2024-03-29T01:58:09;99124.94;;;13.98;45.70
4705;BME280;2366;51.332;6.610;2024-03-29T02:00:36;99122.63;;;14.22;45.24
4705;BME280;2366;51.332;6.610;2024-03-29T02:03:04;99117.47;;;14.02;45.68
4705;BME280;2366;51.332;6.610;2024-03-29T02:05:35;99096.75;;;14.14;45.41
4705;BME280;2366;51.332;6.610;2024-03-29T02:08:00;99094.19;;;14.30;44.78
4705;BME280;2366;51.332;6.610;2024-03-29T02:10:26;99077.25;;;14.39;44.31
4705;BME280;2366;51.332;6.610;2024-03-29T02:12:51;99077.16;;;14.23;44.89
4705;BME280;2366;51.332;6.610;2024-03-29T02:15:17;99082.91;;;14.36;44.71
4705;BME280;2366;51.332;6.610;2024-03-29T02:17:42;99095.97;;;14.48;44.38
4705;BME280;2366;51.332;6.610;2024-03-29T02:20:08;99087.44;;;14.44;44.36
4705;BME280;2366;51.332;6.610;2024-03-29T02:22:36;99083.88;;;14.35;44.51
4705;BME280;2366;51.332;6.610;2024-03-29T02:25:05;99076.63;;;14.72;44.09
4705;BME280;2366;51.332;6.610;2024-03-29T02:27:31;99095.28;;;14.46;44.15
4705;BME280;2366;51.332;6.610;2024-03-29T02:29:56;99084.91;;;14.34;44.37
4705;BME280;2366;51.332;6.610;2024-03-29T02:32:21;99084.84;;;14.26;44.50
4705;BME280;2366;51.332;6.610;2024-03-29T02:34:47;99093.44;;;14.64;44.05
4705;BME280;2366;51.332;6.610;2024-03-29T02:37:12;99098.91;;;14.63;44.08
4705;BME280;2366;51.332;6.610;2024-03-29T02:39:38;99107.50;;;14.83;43.72
4705;BME280;2366;51.332;6.610;2024-03-29T02:42:03;99120.06;;;14.90;43.73
4705;BME280;2366;51.332;6.610;2024-03-29T02:44:29;99115.91;;;14.96;43.97
4705;BME280;2366;51.332;6.610;2024-03-29T02:46:54;99119.22;;;14.90;44.40
4705;BME280;2366;51.332;6.610;2024-03-29T02:49:19;99127.50;;;14.78;45.70
4705;BME280;2366;51.332;6.610;2024-03-29T02:51:45;99147.13;;;14.69;46.12
4705;BME280;2366;51.332;6.610;2024-03-29T02:54:10;99135.97;;;14.74;46.66
4705;BME280;2366;51.332;6.610;2024-03-29T02:56:36;99140.66;;;14.54;46.73
4705;BME280;2366;51.332;6.610;2024-03-29T02:59:01;99131.72;;;14.37;47.22
4705;BME280;2366;51.332;6.610;2024-03-29T03:01:27;99131.09;;;14.43;47.01
4705;BME280;2366;51.332;6.610;2024-03-29T03:03:52;99110.50;;;14.53;47.13
4705;BME280;2366;51.332;6.610;2024-03-29T03:06:18;99115.31;;;14.50;46.98
4705;BME280;2366;51.332;6.610;2024-03-29T03:08:43;99098.38;;;14.59;46.67
4705;BME280;2366;51.332;6.610;2024-03-29T03:11:27;99105.06;;;14.63;46.79
4705;BME280;2366;51.332;6.610;2024-03-29T03:13:53;99111.03;;;14.57;46.79
4705;BME280;2366;51.332;6.610;2024-03-29T03:16:18;99100.28;;;14.67;46.55
4705;BME280;2366;51.332;6.610;2024-03-29T03:18:43;99097.31;;;14.52;46.92
4705;BME280;2366;51.332;6.610;2024-03-29T03:21:09;99078.59;;;14.44;45.86
4705;BME280;2366;51.332;6.610;2024-03-29T03:23:34;99105.59;;;14.67;46.03
4705;BME280;2366;51.332;6.610;2024-03-29T03:26:02;99106.63;;;14.74;45.81
4705;BME280;2366;51.332;6.610;2024-03-29T03:28:30;99106.97;;;14.71;45.58
4705;BME280;2366;51.332;6.610;2024-03-29T03:30:56;99100.66;;;14.80;45.45
4705;BME280;2366;51.332;6.610;2024-03-29T03:33:22;99086.78;;;14.76;45.54
4705;BME280;2366;51.332;6.610;2024-03-29T03:35:47;99093.81;;;14.77;45.33
4705;BME280;2366;51.332;6.610;2024-03-29T03:38:13;99099.75;;;14.63;45.37
4705;BME280;2366;51.332;6.610;2024-03-29T03:40:39;99096.78;;;14.74;45.45
4705;BME280;2366;51.332;6.610;2024-03-29T03:43:05;99099.97;;;14.78;45.78
4705;BME280;2366;51.332;6.610;2024-03-29T03:45:38;99099.84;;;14.79;45.71
4705;BME280;2366;51.332;6.610;2024-03-29T03:48:08;99093.50;;;14.81;45.71
4705;BME280;2366;51.332;6.610;2024-03-29T03:50:35;99089.66;;;14.83;45.89
4705;BME280;2366;51.332;6.610;2024-03-29T03:53:01;99085.53;;;14.89;45.60
4705;BME280;2366;51.332;6.610;2024-03-29T03:55:27;99083.69;;;14.89;46.02
4705;BME280;2366;51.332;6.610;2024-03-29T03:57:53;99093.97;;;14.76;46.38
4705;BME280;2366;51.332;6.610;2024-03-29T04:00:19;99107.16;;;14.77;46.46
4705;BME280;2366;51.332;6.610;2024-03-29T04:02:51;99099.44;;;14.66;46.84
4705;BME280;2366;51.332;6.610;2024-03-29T04:05:20;99106.44;;;14.67;47.41
4705;BME280;2366;51.332;6.610;2024-03-29T04:07:46;99109.56;;;14.63;47.90
4705;BME280;2366;51.332;6.610;2024-03-29T04:10:11;99117.72;;;14.61;48.09
4705;BME280;2366;51.332;6.610;2024-03-29T04:12:37;99118.50;;;14.53;48.40
4705;BME280;2366;51.332;6.610;2024-03-29T04:15:03;99121.31;;;14.52;48.75
4705;BME280;2366;51.332;6.610;2024-03-29T04:17:29;99104.31;;;14.27;49.81
4705;BME280;2366;51.332;6.610;2024-03-29T04:19:58;99099.94;;;14.17;49.52
4705;BME280;2366;51.332;6.610;2024-03-29T04:22:24;99100.56;;;14.37;49.28
4705;BME280;2366;51.332;6.610;2024-03-29T04:24:49;99109.25;;;14.39;49.65
4705;BME280;2366;51.332;6.610;2024-03-29T04:27:15;99121.53;;;14.32;50.09
4705;BME280;2366;51.332;6.610;2024-03-29T04:29:41;99130.47;;;14.23;49.74
4705;BME280;2366;51.332;6.610;2024-03-29T04:32:07;99128.09;;;14.20;49.56
4705;BME280;2366;51.332;6.610;2024-03-29T04:34:33;99131.66;;;14.29;50.06
4705;BME280;2366;51.332;6.610;2024-03-29T04:36:59;99124.63;;;14.02;49.96
4705;BME280;2366;51.332;6.610;2024-03-29T04:39:24;99136.22;;;13.92;51.03
4705;BME280;2366;51.332;6.610;2024-03-29T04:41:50;99123.28;;;13.97;51.51
4705;BME280;2366;51.332;6.610;2024-03-29T04:44:24;99122.03;;;13.92;52.44
4705;BME280;2366;51.332;6.610;2024-03-29T04:46:50;99132.47;;;13.85;52.76
4705;BME280;2366;51.332;6.610;2024-03-29T04:49:15;99119.13;;;13.77;54.12
4705;BME280;2366;51.332;6.610;2024-03-29T04:51:43;99132.50;;;13.67;54.45
4705;BME280;2366;51.332;6.610;2024-03-29T04:54:08;99114.69;;;13.68;55.64
4705;BME280;2366;51.332;6.610;2024-03-29T04:56:34;99113.03;;;13.67;55.98
4705;BME280;2366;51.332;6.610;2024-03-29T04:59:01;99112.56;;;13.53;56.14
4705;BME280;2366;51.332;6.610;2024-03-29T05:01:27;99118.34;;;13.49;56.07
4705;BME280;2366;51.332;6.610;2024-03-29T05:03:52;99110.88;;;13.52;57.19
4705;BME280;2366;51.332;6.610;2024-03-29T05:06:18;99108.06;;;13.36;57.31
4705;BME280;2366;51.332;6.610;2024-03-29T05:08:43;99098.25;;;13.37;58.10
4705;BME280;2366;51.332;6.610;2024-03-29T05:11:09;99099.75;;;13.39;57.24
4705;BME280;2366;51.332;6.610;2024-03-29T05:13:36;99097.84;;;13.31;57.35
4705;BME280;2366;51.332;6.610;2024-03-29T05:16:03;99091.09;;;13.37;57.68
4705;BME280;2366;51.332;6.610;2024-03-29T05:18:29;99098.25;;;13.37;57.45
4705;BME280;2366;51.332;6.610;2024-03-29T05:20:54;99094.44;;;13.39;57.83
4705;BME280;2366;51.332;6.610;2024-03-29T05:23:20;99093.31;;;13.42;57.49
4705;BME280;2366;51.332;6.610;2024-03-29T05:25:45;99097.19;;;13.47;57.25
4705;BME280;2366;51.332;6.610;2024-03-29T05:28:13;99091.56;;;13.50;56.55
4705;BME280;2366;51.332;6.610;2024-03-29T05:30:38;99096.19;;;13.48;57.06
4705;BME280;2366;51.332;6.610;2024-03-29T05:33:04;99080.13;;;13.40;57.67
4705;BME280;2366;51.332;6.610;2024-03-29T05:35:31;99095.81;;;13.43;57.70
4705;BME280;2366;51.332;6.610;2024-03-29T05:37:57;99094.44;;;13.39;57.17
4705;BME280;2366;51.332;6.610;2024-03-29T05:40:23;99113.31;;;13.46;57.17
4705;BME280;2366;51.332;6.610;2024-03-29T05:42:50;99095.50;;;13.46;57.60
4705;BME280;2366;51.332;6.610;2024-03-29T05:45:42;99079.38;;;13.48;57.62
4705;BME280;2366;51.332;6.610;2024-03-29T05:48:07;99064.41;;;13.47;57.56
4705;BME280;2366;51.332;6.610;2024-03-29T05:50:33;99066.75;;;13.50;57.41
4705;BME280;2366;51.332;6.610;2024-03-29T05:52:58;99068.28;;;13.52;56.89
4705;BME280;2366;51.332;6.610;2024-03-29T05:55:26;99067.81;;;13.57;57.43
4705;BME280;2366;51.332;6.610;2024-03-29T05:57:51;99074.66;;;13.60;57.20
4705;BME280;2366;51.332;6.610;2024-03-29T06:00:17;99069.34;;;13.60;56.67
4705;BME280;2366;51.332;6.610;2024-03-29T06:02:43;99069.03;;;13.63;56.19
4705;BME280;2366;51.332;6.610;2024-03-29T06:05:10;99067.56;;;13.68;56.07
4705;BME280;2366;51.332;6.610;2024-03-29T06:07:36;99071.19;;;13.77;55.60
4705;BME280;2366;51.332;6.610;2024-03-29T06:10:02;99069.34;;;13.77;55.43
4705;BME280;2366;51.332;6.610;2024-03-29T06:12:32;99069.94;;;13.71;55.23
4705;BME280;2366;51.332;6.610;2024-03-29T06:14:57;99077.13;;;13.71;54.31
4705;BME280;2366;51.332;6.610;2024-03-29T06:17:41;99082.03;;;13.84;53.94
4705;BME280;2366;51.332;6.610;2024-03-29T06:20:07;99085.91;;;13.89;54.00
4705;BME280;2366;51.332;6.610;2024-03-29T06:22:33;99079.22;;;13.85;53.41
4705;BME280;2366;51.332;6.610;2024-03-29T06:24:58;99088.97;;;13.94;53.33
4705;BME280;2366;51.332;6.610;2024-03-29T06:27:27;99081.19;;;14.01;53.37
4705;BME280;2366;51.332;6.610;2024-03-29T06:29:52;99091.03;;;14.09;53.66
4705;BME280;2366;51.332;6.610;2024-03-29T06:32:18;99085.22;;;14.05;53.46
4705;BME280;2366;51.332;6.610;2024-03-29T06:34:46;99092.97;;;13.98;53.86
4705;BME280;2366;51.332;6.610;2024-03-29T06:37:13;99092.78;;;14.18;53.54
4705;BME280;2366;51.332;6.610;2024-03-29T06:39:38;99090.03;;;14.28;53.72
4705;BME280;2366;51.332;6.610;2024-03-29T06:42:04;99100.31;;;14.23;53.81
4705;BME280;2366;51.332;6.610;2024-03-29T06:44:32;99078.34;;;14.29;53.61
4705;BME280;2366;51.332;6.610;2024-03-29T06:46:58;99093.97;;;14.24;53.63
4705;BME280;2366;51.332;6.610;2024-03-29T06:49:23;99096.78;;;14.22;53.79
4705;BME280;2366;51.332;6.610;2024-03-29T06:51:49;99083.19;;;14.25;54.43
4705;BME280;2366;51.332;6.610;2024-03-29T06:54:14;99083.22;;;14.33;54.27
4705;BME280;2366;51.332;6.610;2024-03-29T06:56:39;99088.09;;;14.38;54.02
4705;BME280;2366;51.332;6.610;2024-03-29T06:59:05;99080.66;;;14.50;54.39
4705;BME280;2366;51.332;6.610;2024-03-29T07:01:30;99080.66;;;14.50;54.11
4705;BME280;2366;51.332;6.610;2024-03-29T07:03:56;99079.63;;;14.43;54.18
4705;BME280;2366;51.332;6.610;2024-03-29T07:06:21;99087.66;;;14.51;55.04
4705;BME280;2366;51.332;6.610;2024-03-29T07:08:47;99084.38;;;14.57;54.27
4705;BME280;2366;51.332;6.610;2024-03-29T07:11:13;99089.91;;;14.37;54.87
4705;BME280;2366;51.332;6.610;2024-03-29T07:13:38;99093.50;;;14.54;54.78
4705;BME280;2366;51.332;6.610;2024-03-29T07:16:04;99092.53;;;14.29;55.16
4705;BME280;2366;51.332;6.610;2024-03-29T07:18:30;99102.66;;;14.52;55.32
4705;BME280;2366;51.332;6.610;2024-03-29T07:20:55;99103.22;;;14.55;55.15
4705;BME280;2366;51.332;6.610;2024-03-29T07:23:21;99091.59;;;14.65;55.15
4705;BME280;2366;51.332;6.610;2024-03-29T07:26:00;99097.13;;;14.71;55.26
4705;BME280;2366;51.332;6.610;2024-03-29T07:28:27;99093.16;;;14.75;55.28
4705;BME280;2366;51.332;6.610;2024-03-29T07:30:52;99107.75;;;14.63;55.56
4705;BME280;2366;51.332;6.610;2024-03-29T07:33:22;99104.31;;;14.53;56.11
4705;BME280;2366;51.332;6.610;2024-03-29T07:35:51;99122.63;;;14.74;55.92
4705;BME280;2366;51.332;6.610;2024-03-29T07:38:17;99128.09;;;14.64;56.34
4705;BME280;2366;51.332;6.610;2024-03-29T07:40:43;99132.94;;;14.69;56.87
4705;BME280;2366;51.332;6.610;2024-03-29T07:43:11;99135.91;;;14.66;57.42
4705;BME280;2366;51.332;6.610;2024-03-29T07:45:42;99145.13;;;14.71;57.33
4705;BME280;2366;51.332;6.610;2024-03-29T07:48:13;99154.50;;;14.75;57.72
4705;BME280;2366;51.332;6.610;2024-03-29T07:50:43;99162.22;;;14.87;57.66
4705;BME280;2366;51.332;6.610;2024-03-29T07:53:09;99152.75;;;14.92;57.96
4705;BME280;2366;51.332;6.610;2024-03-29T07:55:38;99159.25;;;14.98;57.63
4705;BME280;2366;51.332;6.610;2024-03-29T07:58:05;99156.97;;;15.03;57.75
4705;BME280;2366;51.332;6.610;2024-03-29T08:00:34;99157.31;;;15.08;57.46
4705;BME280;2366;51.332;6.610;2024-03-29T08:02:59;99135.97;;;15.08;57.51
4705;BME280;2366;51.332;6.610;2024-03-29T08:05:25;99133.72;;;15.30;57.62
4705;BME280;2366;51.332;6.610;2024-03-29T08:07:51;99142.94;;;15.52;57.05
4705;BME280;2366;51.332;6.610;2024-03-29T08:10:16;99138.28;;;15.54;57.86
4705;BME280;2366;51.332;6.610;2024-03-29T08:12:41;99144.59;;;15.45;57.91
4705;BME280;2366;51.332;6.610;2024-03-29T08:15:07;99155.81;;;15.65;57.65
4705;BME280;2366;51.332;6.610;2024-03-29T08:17:33;99159.28;;;15.57;58.38
4705;BME280;2366;51.332;6.610;2024-03-29T08:19:59;99149.44;;;15.49;58.55
4705;BME280;2366;51.332;6.610;2024-03-29T08:22:24;99151.28;;;15.57;59.21
4705;BME280;2366;51.332;6.610;2024-03-29T08:24:50;99152.97;;;15.58;59.40
4705;BME280;2366;51.332;6.610;2024-03-29T08:27:15;99143.59;;;15.46;59.93
4705;BME280;2366;51.332;6.610;2024-03-29T08:29:42;99155.13;;;15.46;60.38
4705;BME280;2366;51.332;6.610;2024-03-29T08:32:07;99152.53;;;15.28;60.71
4705;BME280;2366;51.332;6.610;2024-03-29T08:34:34;99151.22;;;15.32;61.19
4705;BME280;2366;51.332;6.610;2024-03-29T08:37:03;99148.63;;;15.57;60.81
4705;BME280;2366;51.332;6.610;2024-03-29T08:39:29;99141.81;;;15.71;60.75
4705;BME280;2366;51.332;6.610;2024-03-29T08:41:55;99161.16;;;15.65;61.41
4705;BME280;2366;51.332;6.610;2024-03-29T08:44:20;99153.38;;;15.96;60.82
4705;BME280;2366;51.332;6.610;2024-03-29T08:46:46;99166.25;;;16.09;60.90
4705;BME280;2366;51.332;6.610;2024-03-29T08:49:11;99173.94;;;16.12;61.00
4705;BME280;2366;51.332;6.610;2024-03-29T08:51:37;99163.56;;;16.09;61.10
4705;BME280;2366;51.332;6.610;2024-03-29T08:54:02;99166.56;;;15.73;62.64
4705;BME280;2366;51.332;6.610;2024-03-29T08:56:33;99173.91;;;15.87;63.31
4705;BME280;2366;51.332;6.610;2024-03-29T08:59:05;99177.78;;;16.26;62.83
4705;BME280;2366;51.332;6.610;2024-03-29T09:01:35;99175.56;;;16.62;62.10
4705;BME280;2366;51.332;6.610;2024-03-29T09:04:01;99171.38;;;16.92;61.57
4705;BME280;2366;51.332;6.610;2024-03-29T09:06:26;99176.91;;;17.30;59.84
4705;BME280;2366;51.332;6.610;2024-03-29T09:08:51;99176.03;;;17.69;59.73
4705;BME280;2366;51.332;6.610;2024-03-29T09:11:17;99173.00;;;17.41;59.53
4705;BME280;2366;51.332;6.610;2024-03-29T09:13:43;99172.09;;;17.57;58.99
4705;BME280;2366;51.332;6.610;2024-03-29T09:16:08;99164.91;;;17.49;58.74
4705;BME280;2366;51.332;6.610;2024-03-29T09:18:33;99166.44;;;17.43;58.59
4705;BME280;2366;51.332;6.610;2024-03-29T09:20:59;99172.34;;;17.39;58.50
4705;BME280;2366;51.332;6.610;2024-03-29T09:23:26;99173.34;;;17.69;58.34
4705;BME280;2366;51.332;6.610;2024-03-29T09:25:53;99182.25;;;17.70;57.17
4705;BME280;2366;51.332;6.610;2024-03-29T09:28:19;99183.09;;;17.62;57.50
4705;BME280;2366;51.332;6.610;2024-03-29T09:30:46;99193.41;;;17.50;57.96
4705;BME280;2366;51.332;6.610;2024-03-29T09:33:12;99194.25;;;17.74;57.98
4705;BME280;2366;51.332;6.610;2024-03-29T09:35:37;99185.66;;;18.10;56.96
4705;BME280;2366;51.332;6.610;2024-03-29T09:38:02;99190.22;;;18.47;55.84
4705;BME280;2366;51.332;6.610;2024-03-29T09:40:29;99178.84;;;18.60;54.93
4705;BME280;2366;51.332;6.610;2024-03-29T09:42:56;99186.56;;;18.63;54.79
4705;BME280;2366;51.332;6.610;2024-03-29T09:45:32;99194.50;;;19.09;54.21
4705;BME280;2366;51.332;6.610;2024-03-29T09:48:01;99190.22;;;19.15;53.50
4705;BME280;2366;51.332;6.610;2024-03-29T09:50:26;99185.28;;;19.33;52.73
4705;BME280;2366;51.332;6.610;2024-03-29T09:52:52;99184.25;;;19.49;53.23
4705;BME280;2366;51.332;6.610;2024-03-29T09:55:18;99192.19;;;19.72;53.38
4705;BME280;2366;51.332;6.610;2024-03-29T09:57:45;99191.44;;;19.63;52.97
4705;BME280;2366;51.332;6.610;2024-03-29T10:00:11;99202.09;;;19.86;52.94
4705;BME280;2366;51.332;6.610;2024-03-29T10:02:37;99203.03;;;19.64;52.18
4705;BME280;2366;51.332;6.610;2024-03-29T10:05:04;99207.03;;;20.04;52.13
4705;BME280;2366;51.332;6.610;2024-03-29T10:07:32;99211.66;;;20.10;52.24
4705;BME280;2366;51.332;6.610;2024-03-29T10:10:00;99221.28;;;20.05;52.06
4705;BME280;2366;51.332;6.610;2024-03-29T10:12:27;99226.22;;;20.01;51.98
4705;BME280;2366;51.332;6.610;2024-03-29T10:14:52;99226.34;;;19.93;52.20
4705;BME280;2366;51.332;6.610;2024-03-29T10:17:20;99215.81;;;19.62;52.66
4705;BME280;2366;51.332;6.610;2024-03-29T10:19:46;99214.38;;;19.29;53.44
4705;BME280;2366;51.332;6.610;2024-03-29T10:22:12;99220.78;;;19.14;53.28
4705;BME280;2366;51.332;6.610;2024-03-29T10:24:38;99216.88;;;19.16;53.18
4705;BME280;2366;51.332;6.610;2024-03-29T10:27:04;99225.59;;;19.48;53.37
4705;BME280;2366;51.332;6.610;2024-03-29T10:29:29;99231.69;;;19.57;52.90
4705;BME280;2366;51.332;6.610;2024-03-29T10:31:55;99218.97;;;19.65;53.04
4705;BME280;2366;51.332;6.610;2024-03-29T10:34:21;99221.03;;;19.48;52.75
4705;BME280;2366;51.332;6.610;2024-03-29T10:36:47;99210.03;;;19.43;52.87
4705;BME280;2366;51.332;6.610;2024-03-29T10:39:15;99201.38;;;19.63;52.73
4705;BME280;2366;51.332;6.610;2024-03-29T10:41:41;99212.13;;;19.99;52.52
4705;BME280;2366;51.332;6.610;2024-03-29T10:44:11;99211.81;;;20.52;51.26
4705;BME280;2366;51.332;6.610;2024-03-29T10:46:38;99212.63;;;20.74;50.63
4705;BME280;2366;51.332;6.610;2024-03-29T10:49:06;99214.94;;;21.12;50.12
4705;BME280;2366;51.332;6.610;2024-03-29T10:51:33;99208.03;;;21.38;48.74
4705;BME280;2366;51.332;6.610;2024-03-29T10:53:59;99205.81;;;21.48;48.43
4705;BME280;2366;51.332;6.610;2024-03-29T10:56:26;99216.28;;;21.64;48.27
4705;BME280;2366;51.332;6.610;2024-03-29T10:58:56;99204.78;;;22.10;46.37
4705;BME280;2366;51.332;6.610;2024-03-29T11:01:25;99211.06;;;22.71;46.37
4705;BME280;2366;51.332;6.610;2024-03-29T11:03:54;99194.84;;;22.77;45.15
4705;BME280;2366;51.332;6.610;2024-03-29T11:06:26;99192.78;;;22.80;44.04
4705;BME280;2366;51.332;6.610;2024-03-29T11:08:56;99196.72;;;22.50;44.85
4705;BME280;2366;51.332;6.610;2024-03-29T11:11:22;99196.09;;;22.55;45.14
4705;BME280;2366;51.332;6.610;2024-03-29T11:16:21;99197.34;;;21.16;44.90
4705;BME280;2366;51.332;6.610;2024-03-29T11:18:47;99214.25;;;21.03;45.06
4705;BME280;2366;51.332;6.610;2024-03-29T11:21:14;99217.72;;;21.25;44.93
4705;BME280;2366;51.332;6.610;2024-03-29T11:23:48;99220.63;;;21.65;44.85
4705;BME280;2366;51.332;6.610;2024-03-29T11:26:14;99223.19;;;21.93;44.46
4705;BME280;2366;51.332;6.610;2024-03-29T11:28:40;99216.34;;;21.91;44.96
4705;BME280;2366;51.332;6.610;2024-03-29T11:31:08;99213.88;;;22.09;43.73
4705;BME280;2366;51.332;6.610;2024-03-29T11:36:15;99211.66;;;22.33;42.64
4705;BME280;2366;51.332;6.610;2024-03-29T11:38:42;99191.72;;;22.21;42.41
4705;BME280;2366;51.332;6.610;2024-03-29T11:41:13;99171.38;;;22.71;41.49
4705;BME280;2366;51.332;6.610;2024-03-29T11:43:39;99200.84;;;22.86;41.68
4705;BME280;2366;51.332;6.610;2024-03-29T11:46:12;99191.94;;;22.26;41.81
4705;BME280;2366;51.332;6.610;2024-03-29T11:48:38;99212.50;;;22.27;41.67
4705;BME280;2366;51.332;6.610;2024-03-29T11:51:05;99254.22;;;22.31;41.44
4705;BME280;2366;51.332;6.610;2024-03-29T11:53:32;99251.31;;;22.26;42.12
4705;BME280;2366;51.332;6.610;2024-03-29T11:55:58;99259.03;;;21.81;43.03
4705;BME280;2366;51.332;6.610;2024-03-29T11:58:26;99271.44;;;21.68;42.75
4705;BME280;2366;51.332;6.610;2024-03-29T12:00:52;99284.22;;;21.53;42.93
4705;BME280;2366;51.332;6.610;2024-03-29T12:03:19;99276.31;;;21.45;43.05
4705;BME280;2366;51.332;6.610;2024-03-29T12:05:49;99280.31;;;21.27;42.99
4705;BME280;2366;51.332;6.610;2024-03-29T12:08:24;99277.03;;;21.32;42.66
4705;BME280;2366;51.332;6.610;2024-03-29T12:10:50;99286.69;;;21.20;42.70
4705;BME280;2366;51.332;6.610;2024-03-29T12:13:17;99281.84;;;21.37;42.53
4705;BME280;2366;51.332;6.610;2024-03-29T12:15:42;99277.59;;;21.27;43.00
4705;BME280;2366;51.332;6.610;2024-03-29T12:18:09;99280.09;;;21.57;42.21
4705;BME280;2366;51.332;6.610;2024-03-29T12:20:35;99277.34;;;21.92;41.25
4705;BME280;2366;51.332;6.610;2024-03-29T12:23:05;99282.38;;;22.08;41.16
4705;BME280;2366;51.332;6.610;2024-03-29T12:25:32;99281.34;;;21.61;41.38
4705;BME280;2366;51.332;6.610;2024-03-29T12:27:58;99281.50;;;21.94;40.69
4705;BME280;2366;51.332;6.610;2024-03-29T12:30:25;99285.47;;;22.05;40.06
4705;BME280;2366;51.332;6.610;2024-03-29T12:35:27;99294.00;;;22.15;39.36
4705;BME280;2366;51.332;6.610;2024-03-29T12:37:54;99281.97;;;21.57;40.87
4705;BME280;2366;51.332;6.610;2024-03-29T12:40:24;99294.84;;;21.33;40.96
4705;BME280;2366;51.332;6.610;2024-03-29T12:42:50;99280.06;;;21.50;40.68
4705;BME280;2366;51.332;6.610;2024-03-29T12:45:19;99266.91;;;21.76;40.26
4705;BME280;2366;51.332;6.610;2024-03-29T12:47:46;99261.53;;;21.76;40.31
4705;BME280;2366;51.332;6.610;2024-03-29T12:50:23;99282.91;;;21.84;40.34
4705;BME280;2366;51.332;6.610;2024-03-29T12:52:50;99283.34;;;22.55;39.29
4705;BME280;2366;51.332;6.610;2024-03-29T12:55:18;99288.69;;;22.29;38.82
4705;BME280;2366;51.332;6.610;2024-03-29T12:57:44;99274.19;;;22.50;39.56
4705;BME280;2366;51.332;6.610;2024-03-29T13:00:11;99285.44;;;22.67;38.85
4705;BME280;2366;51.332;6.610;2024-03-29T13:02:36;99271.50;;;22.70;38.70
4705;BME280;2366;51.332;6.610;2024-03-29T13:05:03;99268.41;;;22.80;38.71
4705;BME280;2366;51.332;6.610;2024-03-29T13:07:29;99286.25;;;22.74;38.25
4705;BME280;2366;51.332;6.610;2024-03-29T13:09:55;99277.97;;;21.94;39.41
4705;BME280;2366;51.332;6.610;2024-03-29T13:12:20;99287.16;;;22.13;38.79
4705;BME280;2366;51.332;6.610;2024-03-29T13:14:46;99284.97;;;22.30;38.47
4705;BME280;2366;51.332;6.610;2024-03-29T13:17:11;99289.56;;;22.76;38.14
4705;BME280;2366;51.332;6.610;2024-03-29T13:19:37;99283.78;;;23.12;37.89
4705;BME280;2366;51.332;6.610;2024-03-29T13:22:02;99290.81;;;22.80;38.18
4705;BME280;2366;51.332;6.610;2024-03-29T13:24:28;99288.75;;;22.89;37.66
4705;BME280;2366;51.332;6.610;2024-03-29T13:26:54;99286.69;;;22.71;37.45